Bond, CO (80423)

1:07 AM MST on December 03, 2016 (GMT -0700)
Eagle County Regional | | Change Station

Elev 6539 ft 39.64 °N, 106.91 °W | Updated 11 minutes ago

Light Snow
Light Snow
20 °F
Feels Like 15 °F
N
4
Wind Variable Wind from SSE

Today
High -- | Low -- °F
--% Chance of Precip.
Yesterday
High -- | Low -- °F
Precip. -- in
Pressure 30.31 in
Visibility 9.0 miles
Clouds Scattered Clouds 1100 ft
Scattered Clouds 3200 ft
Overcast 4600 ft
Windchill 15 °F
Dew Point 18 °F
Humidity 92%
Rainfall 0.00 in
Snow Depth Not available.
7:11 AM 4:41 PM
Waxing Crescent, 13% visible
METAR KEGE 030756Z AUTO 16003KT 9SM -SN SCT011 SCT032 OVC046 M07/M08 A3017 RMK AO2 SLP262 P0000 T10671078 FZRANO
Pressure 30.31 in
Visibility 9.0 miles
Clouds Scattered Clouds 1100 ft
Scattered Clouds 3200 ft
Overcast 4600 ft
Windchill 15 °F
Dew Point 18 °F
Humidity 92%
Rainfall 0.00 in
Snow Depth Not available.
7:11 AM 4:41 PM
Waxing Crescent, 13% visible
METAR KEGE 030756Z AUTO 16003KT 9SM -SN SCT011 SCT032 OVC046 M07/M08 A3017 RMK AO2 SLP262 P0000 T10671078 FZRANO

10-Day Weather Forecast

Almanac

Astronomy

Dec. 03, 2016 Rise Set
Actual Time
Civil Twilight
Nautical Twilight
Astronomical Twilight
Moon
Length of Visible Light
Length of Day
Tomorrow will be .
, % of the Moon is Illuminated

Today's Extremes

State Highs State Lows

Community

WunderPhotos

Upload Photos

1,955,432 photos uploaded!

WunderBlog® & News

Nearby

Air Quality

  Air Quality AQ Index Pollutant
Not available.

Snow Depth

Station Depth Elevation

Earthquake Activity

City Distance Mag. Time & Date
Minimum magnitude displayed is 2.5.

Coastal Water Temperatures

Place Temperature

Stations

Nearby Weather Stations

Station Location Temp. Windchill Dew Point Humidity Wind Precip. Elev Updated Type
                   

Watches & Warnings

There are currently no watches in effect.